ARG1573 SAZN-SACO
Flight info
| Callsign | ARG1573 |
|---|---|
| Flight time | 1h 33m |
| Altitude | FL370 |
| Route | OSEK1C OSEKO UZ114 SIMES SIME2X |
| Aircraft | B38M/M-SDE2E3FGHIRWXY/LB1 |
Departure
| Time | 2026-04-22 14:27 |
|---|---|
| Airport | Presidente Perón International Airport (SAZN) |
Arrival
| Time | 2026-04-22 16:00 |
|---|---|
| Airport | Ingeniero Aeronáutico Ambrosio L.V. Taravella International Airport (SACO) |
| Time | Latitude | Longitude | Altitude | Speed | Heading |
|---|---|---|---|---|---|
| 2026-04-22 14:17 | -38.95154 | -68.14158 | 906 ft | 0 kts | 179° |
| 2026-04-22 14:19 | -38.95136 | -68.14159 | 909 ft | 4 kts | 170° |
| 2026-04-22 14:20 | -38.95095 | -68.14193 | 906 ft | 4 kts | 103° |
| 2026-04-22 14:20 | -38.95093 | -68.14204 | 906 ft | 0 kts | 89° |
| 2026-04-22 14:24 | -38.95093 | -68.14191 | 906 ft | 8 kts | 89° |
| 2026-04-22 14:24 | -38.95094 | -68.14138 | 906 ft | 7 kts | 91° |
| 2026-04-22 14:24 | -38.95096 | -68.14049 | 906 ft | 12 kts | 91° |
| 2026-04-22 14:24 | -38.95076 | -68.13977 | 907 ft | 9 kts | 27° |
| 2026-04-22 14:25 | -38.95018 | -68.14019 | 908 ft | 12 kts | 314° |
| 2026-04-22 14:25 | -38.95013 | -68.14026 | 906 ft | 0 kts | 314° |
| 2026-04-22 14:25 | -38.95008 | -68.14032 | 906 ft | 3 kts | 314° |
| 2026-04-22 14:25 | -38.94981 | -68.14067 | 907 ft | 9 kts | 316° |
| 2026-04-22 14:26 | -38.94926 | -68.14107 | 908 ft | 9 kts | 342° |
| 2026-04-22 14:26 | -38.94903 | -68.14170 | 908 ft | 9 kts | 272° |
| 2026-04-22 14:26 | -38.94903 | -68.14376 | 907 ft | 55 kts | 270° |
| 2026-04-22 14:26 | -38.94900 | -68.15171 | 904 ft | 121 kts | 270° |
| 2026-04-22 14:27 | -38.94896 | -68.16463 | 1041 ft | 156 kts | 270° |
| 2026-04-22 14:27 | -38.94910 | -68.17847 | 1659 ft | 165 kts | 270° |
| 2026-04-22 14:27 | -38.94905 | -68.19279 | 2550 ft | 155 kts | 268° |
| 2026-04-22 14:27 | -38.94899 | -68.20728 | 3061 ft | 173 kts | 268° |
| 2026-04-22 14:28 | -38.94890 | -68.22369 | 3512 ft | 194 kts | 268° |
| 2026-04-22 14:28 | -38.94880 | -68.24174 | 4046 ft | 208 kts | 268° |
| 2026-04-22 14:28 | -38.94869 | -68.26018 | 4979 ft | 206 kts | 267° |
| 2026-04-22 14:28 | -38.94859 | -68.27852 | 5955 ft | 207 kts | 267° |
| 2026-04-22 14:29 | -38.94726 | -68.29717 | 6721 ft | 222 kts | 282° |
| 2026-04-22 14:29 | -38.93831 | -68.31472 | 7205 ft | 257 kts | 314° |
| 2026-04-22 14:29 | -38.92101 | -68.32396 | 7831 ft | 287 kts | 350° |
| 2026-04-22 14:29 | -38.90108 | -68.31939 | 8744 ft | 304 kts | 21° |
| 2026-04-22 14:30 | -38.88393 | -68.30282 | 9560 ft | 315 kts | 45° |
| 2026-04-22 14:30 | -38.86863 | -68.28249 | 10346 ft | 321 kts | 40° |
| 2026-04-22 14:30 | -38.85159 | -68.26280 | 10746 ft | 340 kts | 38° |
| 2026-04-22 14:30 | -38.83304 | -68.24295 | 11179 ft | 355 kts | 36° |
| 2026-04-22 14:31 | -38.81355 | -68.22274 | 11774 ft | 364 kts | 36° |
| 2026-04-22 14:31 | -38.79383 | -68.20247 | 12616 ft | 366 kts | 36° |
| 2026-04-22 14:31 | -38.77385 | -68.18209 | 13360 ft | 370 kts | 35° |
| 2026-04-22 14:31 | -38.75362 | -68.16151 | 14141 ft | 374 kts | 35° |
| 2026-04-22 14:32 | -38.73319 | -68.14075 | 14815 ft | 378 kts | 36° |
| 2026-04-22 14:32 | -38.71250 | -68.11974 | 15489 ft | 383 kts | 36° |
| 2026-04-22 14:32 | -38.69152 | -68.09846 | 16150 ft | 388 kts | 36° |
| 2026-04-22 14:32 | -38.67032 | -68.07697 | 16805 ft | 392 kts | 36° |
| 2026-04-22 14:33 | -38.64887 | -68.05522 | 17434 ft | 397 kts | 36° |
| 2026-04-22 14:33 | -38.62714 | -68.03322 | 18055 ft | 402 kts | 36° |
| 2026-04-22 14:33 | -38.60517 | -68.01100 | 18644 ft | 406 kts | 36° |
| 2026-04-22 14:33 | -38.58297 | -67.98855 | 19192 ft | 410 kts | 36° |
| 2026-04-22 14:34 | -38.56057 | -67.96592 | 19726 ft | 413 kts | 36° |
| 2026-04-22 14:34 | -38.53793 | -67.94306 | 20248 ft | 417 kts | 36° |
| 2026-04-22 14:34 | -38.51510 | -67.92002 | 20758 ft | 421 kts | 36° |
| 2026-04-22 14:34 | -38.49165 | -67.89752 | 21263 ft | 422 kts | 27° |
| 2026-04-22 14:35 | -38.46519 | -67.88188 | 21773 ft | 421 kts | 18° |
| 2026-04-22 14:35 | -38.43815 | -67.86692 | 22230 ft | 427 kts | 19° |
| 2026-04-22 14:35 | -38.41092 | -67.85172 | 22774 ft | 430 kts | 19° |
| 2026-04-22 14:35 | -38.38346 | -67.83643 | 23240 ft | 434 kts | 19° |
| 2026-04-22 14:36 | -38.35570 | -67.82098 | 23705 ft | 438 kts | 19° |
| 2026-04-22 14:36 | -38.32774 | -67.80543 | 24122 ft | 441 kts | 19° |
| 2026-04-22 14:36 | -38.29965 | -67.78982 | 24555 ft | 443 kts | 19° |
| 2026-04-22 14:36 | -38.27139 | -67.77413 | 24952 ft | 446 kts | 19° |
| 2026-04-22 14:37 | -38.24297 | -67.75837 | 25354 ft | 448 kts | 18° |
| 2026-04-22 14:37 | -38.21436 | -67.74252 | 25766 ft | 450 kts | 18° |
| 2026-04-22 14:37 | -38.18566 | -67.72663 | 26173 ft | 452 kts | 18° |
| 2026-04-22 14:37 | -38.15680 | -67.71067 | 26565 ft | 454 kts | 18° |
| 2026-04-22 14:38 | -38.12778 | -67.69463 | 26963 ft | 456 kts | 18° |
| 2026-04-22 14:38 | -38.09870 | -67.67857 | 27364 ft | 458 kts | 18° |
| 2026-04-22 14:38 | -38.06946 | -67.66244 | 27753 ft | 460 kts | 18° |
| 2026-04-22 14:38 | -38.04009 | -67.64625 | 28137 ft | 462 kts | 18° |
| 2026-04-22 14:39 | -38.01065 | -67.63003 | 28516 ft | 464 kts | 18° |
| 2026-04-22 14:39 | -37.98105 | -67.61375 | 28895 ft | 465 kts | 18° |
| 2026-04-22 14:39 | -37.95136 | -67.59742 | 29263 ft | 467 kts | 17° |
| 2026-04-22 14:40 | -37.90168 | -67.57014 | 29883 ft | 469 kts | 17° |
| 2026-04-22 14:40 | -37.86175 | -67.54824 | 30345 ft | 471 kts | 17° |
| 2026-04-22 14:40 | -37.83170 | -67.53177 | 30640 ft | 472 kts | 17° |
| 2026-04-22 14:40 | -37.80162 | -67.51531 | 30950 ft | 473 kts | 17° |
| 2026-04-22 14:41 | -37.77146 | -67.49882 | 31247 ft | 474 kts | 17° |
| 2026-04-22 14:41 | -37.74120 | -67.48229 | 31541 ft | 475 kts | 17° |
| 2026-04-22 14:41 | -37.71088 | -67.46574 | 31834 ft | 476 kts | 16° |
| 2026-04-22 14:41 | -37.68051 | -67.44918 | 32114 ft | 477 kts | 16° |
| 2026-04-22 14:42 | -37.65005 | -67.43258 | 32380 ft | 479 kts | 16° |
| 2026-04-22 14:42 | -37.61952 | -67.41596 | 32692 ft | 479 kts | 16° |
| 2026-04-22 14:42 | -37.58904 | -67.39937 | 33083 ft | 477 kts | 15° |
| 2026-04-22 14:42 | -37.55866 | -67.38287 | 33468 ft | 476 kts | 15° |
| 2026-04-22 14:43 | -37.52836 | -67.36641 | 33848 ft | 474 kts | 15° |
| 2026-04-22 14:43 | -37.49817 | -67.35004 | 34219 ft | 473 kts | 15° |
| 2026-04-22 14:43 | -37.46804 | -67.33371 | 34512 ft | 472 kts | 14° |
| 2026-04-22 14:43 | -37.43800 | -67.31744 | 34780 ft | 471 kts | 14° |
| 2026-04-22 14:44 | -37.40793 | -67.30117 | 35043 ft | 471 kts | 14° |
| 2026-04-22 14:44 | -37.37792 | -67.28494 | 35311 ft | 470 kts | 14° |
| 2026-04-22 14:44 | -37.34792 | -67.26874 | 35569 ft | 470 kts | 14° |
| 2026-04-22 14:44 | -37.31799 | -67.25259 | 35828 ft | 469 kts | 14° |
| 2026-04-22 14:45 | -37.28805 | -67.23645 | 36083 ft | 468 kts | 14° |
| 2026-04-22 14:45 | -37.25820 | -67.22037 | 36316 ft | 468 kts | 13° |
| 2026-04-22 14:45 | -37.22834 | -67.20430 | 36544 ft | 468 kts | 13° |
| 2026-04-22 14:45 | -37.19853 | -67.18826 | 36784 ft | 467 kts | 13° |
| 2026-04-22 14:46 | -37.16875 | -67.17226 | 37012 ft | 466 kts | 13° |
| 2026-04-22 14:46 | -37.13897 | -67.15627 | 37189 ft | 466 kts | 13° |
| 2026-04-22 14:46 | -37.07955 | -67.12441 | 37181 ft | 464 kts | 13° |
| 2026-04-22 14:47 | -37.02038 | -67.09274 | 37191 ft | 463 kts | 13° |
| 2026-04-22 14:47 | -36.96126 | -67.06114 | 37189 ft | 463 kts | 13° |
| 2026-04-22 14:48 | -36.90230 | -67.02926 | 37191 ft | 467 kts | 17° |
| 2026-04-22 14:48 | -36.84603 | -66.98719 | 37197 ft | 474 kts | 21° |
| 2026-04-22 14:49 | -36.78986 | -66.94446 | 37202 ft | 473 kts | 21° |
| 2026-04-22 14:49 | -36.73382 | -66.90178 | 37202 ft | 473 kts | 21° |
| 2026-04-22 14:50 | -36.67776 | -66.85917 | 37203 ft | 473 kts | 21° |
| 2026-04-22 14:50 | -36.62175 | -66.81666 | 37203 ft | 472 kts | 21° |
| 2026-04-22 14:51 | -36.56577 | -66.77425 | 37204 ft | 472 kts | 21° |
| 2026-04-22 14:51 | -36.50987 | -66.73198 | 37205 ft | 471 kts | 20° |
| 2026-04-22 14:52 | -36.45405 | -66.68983 | 37193 ft | 470 kts | 20° |
| 2026-04-22 14:52 | -36.39829 | -66.64780 | 37202 ft | 469 kts | 20° |
| 2026-04-22 14:53 | -36.34260 | -66.60590 | 37203 ft | 469 kts | 20° |
| 2026-04-22 14:53 | -36.28704 | -66.56417 | 37201 ft | 468 kts | 20° |
| 2026-04-22 14:54 | -36.23151 | -66.52253 | 37202 ft | 467 kts | 20° |
| 2026-04-22 14:54 | -36.17606 | -66.48102 | 37201 ft | 466 kts | 20° |
| 2026-04-22 14:55 | -36.12070 | -66.43964 | 37202 ft | 465 kts | 20° |
| 2026-04-22 14:55 | -36.06545 | -66.39842 | 37204 ft | 465 kts | 20° |
| 2026-04-22 14:56 | -36.01024 | -66.35729 | 37207 ft | 464 kts | 20° |
| 2026-04-22 14:56 | -35.95506 | -66.31626 | 37204 ft | 464 kts | 20° |
| 2026-04-22 14:57 | -35.89994 | -66.27533 | 37205 ft | 463 kts | 19° |
| 2026-04-22 14:57 | -35.84479 | -66.23446 | 37204 ft | 463 kts | 19° |
| 2026-04-22 14:58 | -35.78962 | -66.19363 | 37202 ft | 463 kts | 19° |
| 2026-04-22 14:58 | -35.73450 | -66.15291 | 37204 ft | 463 kts | 19° |
| 2026-04-22 14:59 | -35.67933 | -66.11220 | 37210 ft | 463 kts | 19° |
| 2026-04-22 14:59 | -35.62413 | -66.07158 | 37204 ft | 463 kts | 19° |
| 2026-04-22 15:00 | -35.56885 | -66.03097 | 37206 ft | 463 kts | 19° |
| 2026-04-22 15:00 | -35.51362 | -65.99046 | 37206 ft | 464 kts | 19° |
| 2026-04-22 15:01 | -35.45830 | -65.94994 | 37206 ft | 464 kts | 19° |
| 2026-04-22 15:01 | -35.40295 | -65.90948 | 37201 ft | 464 kts | 19° |
| 2026-04-22 15:02 | -35.34755 | -65.86903 | 37216 ft | 464 kts | 19° |
| 2026-04-22 15:02 | -35.29216 | -65.82867 | 37210 ft | 464 kts | 19° |
| 2026-04-22 15:03 | -35.23674 | -65.78834 | 37200 ft | 464 kts | 19° |
| 2026-04-22 15:03 | -35.18131 | -65.74807 | 37200 ft | 464 kts | 19° |
| 2026-04-22 15:04 | -35.12586 | -65.70786 | 37202 ft | 464 kts | 19° |
| 2026-04-22 15:04 | -35.07041 | -65.66770 | 37202 ft | 464 kts | 19° |
| 2026-04-22 15:05 | -35.01501 | -65.62765 | 37200 ft | 464 kts | 18° |
| 2026-04-22 15:05 | -34.95955 | -65.58762 | 37201 ft | 464 kts | 18° |
| 2026-04-22 15:06 | -34.90406 | -65.54763 | 37198 ft | 464 kts | 18° |
| 2026-04-22 15:06 | -34.84863 | -65.50774 | 37197 ft | 464 kts | 18° |
| 2026-04-22 15:07 | -34.79313 | -65.46787 | 37191 ft | 464 kts | 18° |
| 2026-04-22 15:07 | -34.73769 | -65.42810 | 37184 ft | 464 kts | 18° |
| 2026-04-22 15:08 | -34.68224 | -65.38838 | 37198 ft | 463 kts | 18° |
| 2026-04-22 15:08 | -34.62683 | -65.34875 | 37190 ft | 463 kts | 18° |
| 2026-04-22 15:09 | -34.57146 | -65.30921 | 37193 ft | 462 kts | 17° |
| 2026-04-22 15:09 | -34.51617 | -65.26978 | 37190 ft | 462 kts | 17° |
| 2026-04-22 15:10 | -34.46087 | -65.23041 | 37194 ft | 462 kts | 17° |
| 2026-04-22 15:10 | -34.40561 | -65.19113 | 37194 ft | 461 kts | 17° |
| 2026-04-22 15:11 | -34.35042 | -65.15195 | 37193 ft | 461 kts | 17° |
| 2026-04-22 15:11 | -34.29520 | -65.11283 | 37191 ft | 461 kts | 17° |
| 2026-04-22 15:12 | -34.23998 | -65.07375 | 37189 ft | 461 kts | 17° |
| 2026-04-22 15:12 | -34.18479 | -65.03475 | 37192 ft | 460 kts | 17° |
| 2026-04-22 15:13 | -34.12959 | -64.99582 | 37189 ft | 460 kts | 17° |
| 2026-04-22 15:13 | -34.07440 | -64.95695 | 37189 ft | 460 kts | 16° |
| 2026-04-22 15:14 | -34.01920 | -64.91813 | 37188 ft | 460 kts | 16° |
| 2026-04-22 15:14 | -33.96399 | -64.87936 | 37185 ft | 460 kts | 16° |
| 2026-04-22 15:15 | -33.90883 | -64.84068 | 37187 ft | 460 kts | 16° |
| 2026-04-22 15:15 | -33.85368 | -64.80207 | 37185 ft | 459 kts | 16° |
| 2026-04-22 15:16 | -33.79851 | -64.76351 | 37184 ft | 459 kts | 16° |
| 2026-04-22 15:16 | -33.74343 | -64.72507 | 37184 ft | 459 kts | 16° |
| 2026-04-22 15:17 | -33.68834 | -64.68668 | 37182 ft | 458 kts | 15° |
| 2026-04-22 15:17 | -33.63328 | -64.64837 | 37181 ft | 458 kts | 15° |
| 2026-04-22 15:18 | -33.57825 | -64.61013 | 37179 ft | 458 kts | 15° |
| 2026-04-22 15:18 | -33.52320 | -64.57194 | 37179 ft | 458 kts | 15° |
| 2026-04-22 15:19 | -33.46834 | -64.53314 | 37183 ft | 460 kts | 16° |
| 2026-04-22 15:19 | -33.41357 | -64.49387 | 37183 ft | 459 kts | 16° |
| 2026-04-22 15:20 | -33.35884 | -64.45475 | 37179 ft | 459 kts | 16° |
| 2026-04-22 15:20 | -33.30411 | -64.41570 | 37182 ft | 459 kts | 16° |
| 2026-04-22 15:21 | -33.24939 | -64.37671 | 37179 ft | 459 kts | 16° |
| 2026-04-22 15:21 | -33.19471 | -64.33780 | 37177 ft | 458 kts | 16° |
| 2026-04-22 15:22 | -33.14000 | -64.29893 | 37179 ft | 458 kts | 16° |
| 2026-04-22 15:22 | -33.08523 | -64.26059 | 37180 ft | 455 kts | 14° |
| 2026-04-22 15:23 | -33.03016 | -64.22344 | 37182 ft | 456 kts | 14° |
| 2026-04-22 15:23 | -32.97510 | -64.18619 | 37179 ft | 456 kts | 14° |
| 2026-04-22 15:24 | -32.92001 | -64.14896 | 37179 ft | 456 kts | 14° |
| 2026-04-22 15:24 | -32.86497 | -64.11182 | 37185 ft | 456 kts | 14° |
| 2026-04-22 15:25 | -32.80987 | -64.07469 | 37184 ft | 456 kts | 14° |
| 2026-04-22 15:25 | -32.75484 | -64.03766 | 37184 ft | 456 kts | 14° |
| 2026-04-22 15:26 | -32.69974 | -64.00064 | 37184 ft | 456 kts | 14° |
| 2026-04-22 15:26 | -32.64468 | -63.96350 | 37184 ft | 457 kts | 14° |
| 2026-04-22 15:27 | -32.58966 | -63.92620 | 37153 ft | 455 kts | 14° |
| 2026-04-22 15:27 | -32.56235 | -63.90770 | 36625 ft | 451 kts | 14° |
| 2026-04-22 15:27 | -32.53532 | -63.88941 | 36176 ft | 446 kts | 14° |
| 2026-04-22 15:28 | -32.50857 | -63.87133 | 35737 ft | 441 kts | 14° |
| 2026-04-22 15:28 | -32.48211 | -63.85347 | 35247 ft | 438 kts | 14° |
| 2026-04-22 15:28 | -32.45570 | -63.83563 | 34760 ft | 436 kts | 14° |
| 2026-04-22 15:28 | -32.42952 | -63.81798 | 34283 ft | 433 kts | 15° |
| 2026-04-22 15:29 | -32.40346 | -63.80041 | 33747 ft | 431 kts | 15° |
| 2026-04-22 15:29 | -32.37753 | -63.78294 | 33256 ft | 428 kts | 15° |
| 2026-04-22 15:29 | -32.35181 | -63.76563 | 32794 ft | 424 kts | 15° |
| 2026-04-22 15:30 | -32.30944 | -63.73713 | 32038 ft | 419 kts | 16° |
| 2026-04-22 15:30 | -32.27588 | -63.71458 | 31440 ft | 415 kts | 17° |
| 2026-04-22 15:30 | -32.25089 | -63.69780 | 30997 ft | 413 kts | 17° |
| 2026-04-22 15:30 | -32.22603 | -63.68113 | 30553 ft | 411 kts | 17° |
| 2026-04-22 15:31 | -32.20130 | -63.66454 | 30087 ft | 409 kts | 17° |
| 2026-04-22 15:31 | -32.17667 | -63.64803 | 29578 ft | 407 kts | 18° |
| 2026-04-22 15:31 | -32.15216 | -63.63162 | 29136 ft | 403 kts | 18° |
| 2026-04-22 15:31 | -32.12793 | -63.61541 | 28714 ft | 400 kts | 18° |
| 2026-04-22 15:32 | -32.10389 | -63.59932 | 28291 ft | 396 kts | 19° |
| 2026-04-22 15:32 | -32.07998 | -63.58349 | 27842 ft | 392 kts | 16° |
| 2026-04-22 15:32 | -32.05507 | -63.57346 | 27259 ft | 370 kts | 357° |
| 2026-04-22 15:32 | -32.03022 | -63.57319 | 26887 ft | 351 kts | 347° |
| 2026-04-22 15:33 | -32.00602 | -63.57558 | 26501 ft | 347 kts | 346° |
| 2026-04-22 15:33 | -31.98219 | -63.57877 | 26089 ft | 344 kts | 345° |
| 2026-04-22 15:33 | -31.95857 | -63.58249 | 25673 ft | 342 kts | 344° |
| 2026-04-22 15:33 | -31.93509 | -63.58648 | 25274 ft | 341 kts | 344° |
| 2026-04-22 15:34 | -31.91173 | -63.59059 | 24878 ft | 340 kts | 344° |
| 2026-04-22 15:34 | -31.88850 | -63.59479 | 24492 ft | 339 kts | 345° |
| 2026-04-22 15:34 | -31.86524 | -63.59904 | 24096 ft | 338 kts | 345° |
| 2026-04-22 15:34 | -31.84209 | -63.60331 | 23699 ft | 337 kts | 345° |
| 2026-04-22 15:35 | -31.82664 | -63.60617 | 23396 ft | 337 kts | 345° |
| 2026-04-22 15:35 | -31.79594 | -63.61185 | 22858 ft | 334 kts | 345° |
| 2026-04-22 15:35 | -31.77310 | -63.61607 | 22488 ft | 332 kts | 345° |
| 2026-04-22 15:35 | -31.75046 | -63.62026 | 22123 ft | 329 kts | 346° |
| 2026-04-22 15:36 | -31.72801 | -63.62440 | 21767 ft | 326 kts | 346° |
| 2026-04-22 15:36 | -31.70568 | -63.62852 | 21416 ft | 325 kts | 346° |
| 2026-04-22 15:36 | -31.68321 | -63.63267 | 21055 ft | 330 kts | 346° |
| 2026-04-22 15:36 | -31.66045 | -63.63686 | 20698 ft | 333 kts | 346° |
| 2026-04-22 15:37 | -31.63756 | -63.64108 | 20349 ft | 334 kts | 346° |
| 2026-04-22 15:37 | -31.61467 | -63.64530 | 20006 ft | 333 kts | 346° |
| 2026-04-22 15:37 | -31.59190 | -63.64949 | 19658 ft | 332 kts | 346° |
| 2026-04-22 15:37 | -31.56920 | -63.65366 | 19316 ft | 330 kts | 346° |
| 2026-04-22 15:38 | -31.54654 | -63.65783 | 18978 ft | 330 kts | 346° |
| 2026-04-22 15:38 | -31.50150 | -63.66610 | 18235 ft | 327 kts | 347° |
| 2026-04-22 15:38 | -31.47915 | -63.67020 | 17880 ft | 324 kts | 347° |
| 2026-04-22 15:39 | -31.45706 | -63.67424 | 17565 ft | 320 kts | 347° |
| 2026-04-22 15:39 | -31.43519 | -63.67825 | 17237 ft | 317 kts | 347° |
| 2026-04-22 15:39 | -31.41352 | -63.68221 | 16912 ft | 314 kts | 347° |
| 2026-04-22 15:39 | -31.39208 | -63.68613 | 16588 ft | 311 kts | 347° |
| 2026-04-22 15:40 | -31.37084 | -63.69002 | 16263 ft | 309 kts | 347° |
| 2026-04-22 15:40 | -31.34972 | -63.69388 | 15935 ft | 308 kts | 347° |
| 2026-04-22 15:40 | -31.32844 | -63.69777 | 15609 ft | 313 kts | 347° |
| 2026-04-22 15:40 | -31.30680 | -63.70171 | 15273 ft | 317 kts | 347° |
| 2026-04-22 15:41 | -31.28503 | -63.70569 | 14947 ft | 317 kts | 347° |
| 2026-04-22 15:41 | -31.26333 | -63.70964 | 14621 ft | 315 kts | 347° |
| 2026-04-22 15:41 | -31.24177 | -63.71357 | 14293 ft | 314 kts | 347° |
| 2026-04-22 15:41 | -31.22032 | -63.71748 | 13960 ft | 312 kts | 347° |
| 2026-04-22 15:42 | -31.19894 | -63.72138 | 13586 ft | 311 kts | 348° |
| 2026-04-22 15:42 | -31.17786 | -63.72581 | 13234 ft | 306 kts | 339° |
| 2026-04-22 15:42 | -31.15941 | -63.73728 | 12854 ft | 299 kts | 316° |
| 2026-04-22 15:42 | -31.14680 | -63.75593 | 12569 ft | 292 kts | 296° |
| 2026-04-22 15:43 | -31.14092 | -63.77825 | 12284 ft | 288 kts | 277° |
| 2026-04-22 15:43 | -31.13952 | -63.80142 | 11985 ft | 285 kts | 274° |
| 2026-04-22 15:43 | -31.13879 | -63.82443 | 11678 ft | 283 kts | 272° |
| 2026-04-22 15:43 | -31.13839 | -63.84738 | 11381 ft | 286 kts | 272° |
| 2026-04-22 15:44 | -31.13819 | -63.87075 | 11064 ft | 291 kts | 271° |
| 2026-04-22 15:44 | -31.13808 | -63.89447 | 10751 ft | 294 kts | 271° |
| 2026-04-22 15:44 | -31.13805 | -63.91817 | 10509 ft | 290 kts | 271° |
| 2026-04-22 15:44 | -31.13805 | -63.94150 | 10293 ft | 285 kts | 271° |
| 2026-04-22 15:45 | -31.13808 | -63.96431 | 10115 ft | 278 kts | 271° |
| 2026-04-22 15:45 | -31.13811 | -63.98670 | 9835 ft | 276 kts | 271° |
| 2026-04-22 15:45 | -31.13815 | -64.00897 | 9517 ft | 274 kts | 271° |
| 2026-04-22 15:45 | -31.13818 | -64.03106 | 9221 ft | 272 kts | 271° |
| 2026-04-22 15:46 | -31.13821 | -64.05298 | 8931 ft | 269 kts | 271° |
| 2026-04-22 15:46 | -31.13823 | -64.07470 | 8649 ft | 267 kts | 271° |
| 2026-04-22 15:46 | -31.13825 | -64.09619 | 8372 ft | 264 kts | 271° |
| 2026-04-22 15:46 | -31.13827 | -64.11749 | 8097 ft | 262 kts | 271° |
| 2026-04-22 15:47 | -31.13828 | -64.13858 | 7858 ft | 258 kts | 271° |
| 2026-04-22 15:47 | -31.13830 | -64.15910 | 7738 ft | 249 kts | 271° |
| 2026-04-22 15:47 | -31.13830 | -64.17892 | 7643 ft | 241 kts | 272° |
| 2026-04-22 15:47 | -31.13854 | -64.19836 | 7562 ft | 240 kts | 265° |
| 2026-04-22 15:48 | -31.14434 | -64.21645 | 7414 ft | 243 kts | 236° |
| 2026-04-22 15:48 | -31.15582 | -64.23094 | 7344 ft | 245 kts | 227° |
| 2026-04-22 15:48 | -31.16783 | -64.24502 | 7283 ft | 246 kts | 227° |
| 2026-04-22 15:48 | -31.17995 | -64.25905 | 7227 ft | 246 kts | 227° |
| 2026-04-22 15:49 | -31.19213 | -64.27304 | 7156 ft | 246 kts | 227° |
| 2026-04-22 15:49 | -31.20431 | -64.28696 | 7082 ft | 246 kts | 227° |
| 2026-04-22 15:49 | -31.21652 | -64.30084 | 7012 ft | 245 kts | 227° |
| 2026-04-22 15:49 | -31.22874 | -64.31472 | 6949 ft | 245 kts | 226° |
| 2026-04-22 15:50 | -31.24094 | -64.32855 | 6873 ft | 245 kts | 227° |
| 2026-04-22 15:50 | -31.25315 | -64.34241 | 6807 ft | 245 kts | 227° |
| 2026-04-22 15:50 | -31.26537 | -64.35626 | 6714 ft | 244 kts | 226° |
| 2026-04-22 15:50 | -31.27749 | -64.37003 | 6666 ft | 244 kts | 227° |
| 2026-04-22 15:51 | -31.28967 | -64.38385 | 6604 ft | 245 kts | 227° |
| 2026-04-22 15:51 | -31.30188 | -64.39770 | 6522 ft | 245 kts | 227° |
| 2026-04-22 15:51 | -31.31406 | -64.41153 | 6429 ft | 244 kts | 227° |
| 2026-04-22 15:51 | -31.32620 | -64.42532 | 6362 ft | 244 kts | 226° |
| 2026-04-22 15:52 | -31.33817 | -64.43892 | 6326 ft | 234 kts | 227° |
| 2026-04-22 15:52 | -31.34955 | -64.45185 | 6252 ft | 224 kts | 227° |
| 2026-04-22 15:52 | -31.36162 | -64.46262 | 6112 ft | 217 kts | 205° |
| 2026-04-22 15:52 | -31.37616 | -64.46579 | 6034 ft | 216 kts | 178° |
| 2026-04-22 15:53 | -31.39067 | -64.46141 | 6005 ft | 218 kts | 154° |
| 2026-04-22 15:53 | -31.40372 | -64.45237 | 5994 ft | 215 kts | 148° |
| 2026-04-22 15:53 | -31.41578 | -64.44320 | 5952 ft | 202 kts | 147° |
| 2026-04-22 15:53 | -31.42728 | -64.43413 | 5853 ft | 198 kts | 146° |
| 2026-04-22 15:54 | -31.43852 | -64.42496 | 5772 ft | 198 kts | 142° |
| 2026-04-22 15:54 | -31.44872 | -64.41418 | 5513 ft | 199 kts | 136° |
| 2026-04-22 15:54 | -31.45853 | -64.40270 | 5140 ft | 201 kts | 129° |
| 2026-04-22 15:54 | -31.46406 | -64.38833 | 4847 ft | 187 kts | 94° |
| 2026-04-22 15:55 | -31.46233 | -64.37411 | 4619 ft | 175 kts | 64° |
| 2026-04-22 15:55 | -31.45580 | -64.36241 | 4502 ft | 172 kts | 49° |
| 2026-04-22 15:55 | -31.44815 | -64.35161 | 4391 ft | 172 kts | 47° |
| 2026-04-22 15:55 | -31.44046 | -64.34176 | 4273 ft | 159 kts | 44° |
| 2026-04-22 15:56 | -31.43287 | -64.33272 | 4117 ft | 154 kts | 43° |
| 2026-04-22 15:56 | -31.42531 | -64.32391 | 4003 ft | 153 kts | 42° |
| 2026-04-22 15:56 | -31.41766 | -64.31510 | 3882 ft | 157 kts | 43° |
| 2026-04-22 15:56 | -31.40979 | -64.30606 | 3778 ft | 160 kts | 43° |
| 2026-04-22 15:57 | -31.40185 | -64.29695 | 3689 ft | 161 kts | 43° |
| 2026-04-22 15:57 | -31.39399 | -64.28795 | 3516 ft | 156 kts | 44° |
| 2026-04-22 15:57 | -31.38633 | -64.27921 | 3340 ft | 153 kts | 44° |
| 2026-04-22 15:57 | -31.37872 | -64.27056 | 3157 ft | 152 kts | 45° |
| 2026-04-22 15:58 | -31.37114 | -64.26194 | 2967 ft | 152 kts | 45° |
| 2026-04-22 15:58 | -31.36360 | -64.25338 | 2765 ft | 150 kts | 45° |
| 2026-04-22 15:58 | -31.35613 | -64.24488 | 2559 ft | 150 kts | 45° |
| 2026-04-22 15:58 | -31.34868 | -64.23643 | 2345 ft | 148 kts | 45° |
| 2026-04-22 15:59 | -31.34132 | -64.22812 | 2141 ft | 146 kts | 45° |
| 2026-04-22 15:59 | -31.33407 | -64.21986 | 1877 ft | 146 kts | 45° |
| 2026-04-22 15:59 | -31.32690 | -64.21159 | 1686 ft | 145 kts | 45° |
| 2026-04-22 15:59 | -31.31994 | -64.20381 | 1628 ft | 126 kts | 44° |
| 2026-04-22 16:00 | -31.31502 | -64.19826 | 1621 ft | 63 kts | 44° |
| 2026-04-22 16:00 | -31.31343 | -64.19646 | 1621 ft | 0 kts | 57° |
| 2026-04-22 16:00 | -31.31319 | -64.19601 | 1619 ft | 10 kts | 39° |
| 2026-04-22 16:00 | -31.31310 | -64.19626 | 1621 ft | 10 kts | 218° |
| 2026-04-22 16:01 | -31.31394 | -64.19707 | 1615 ft | 18 kts | 224° |
| 2026-04-22 16:01 | -31.31466 | -64.19789 | 1614 ft | 15 kts | 224° |
| 2026-04-22 16:01 | -31.31546 | -64.19879 | 1615 ft | 16 kts | 224° |
| 2026-04-22 16:01 | -31.31628 | -64.19972 | 1618 ft | 17 kts | 224° |
| 2026-04-22 16:02 | -31.31714 | -64.20068 | 1619 ft | 17 kts | 224° |
| 2026-04-22 16:02 | -31.31803 | -64.20168 | 1617 ft | 19 kts | 224° |
| 2026-04-22 16:02 | -31.31901 | -64.20279 | 1620 ft | 21 kts | 224° |
| 2026-04-22 16:02 | -31.32001 | -64.20390 | 1626 ft | 19 kts | 224° |
| 2026-04-22 16:03 | -31.32094 | -64.20496 | 1618 ft | 20 kts | 224° |
| 2026-04-22 16:03 | -31.32181 | -64.20594 | 1615 ft | 17 kts | 224° |
| 2026-04-22 16:03 | -31.32272 | -64.20697 | 1617 ft | 20 kts | 225° |
| 2026-04-22 16:03 | -31.32370 | -64.20810 | 1620 ft | 19 kts | 224° |
| 2026-04-22 16:04 | -31.32439 | -64.20935 | 1619 ft | 19 kts | 273° |
| 2026-04-22 16:04 | -31.32344 | -64.21021 | 1622 ft | 20 kts | 0° |
| 2026-04-22 16:04 | -31.32204 | -64.21022 | 1623 ft | 20 kts | 358° |
| 2026-04-22 16:04 | -31.32061 | -64.21026 | 1621 ft | 17 kts | 359° |
| 2026-04-22 16:05 | -31.31981 | -64.21026 | 1619 ft | 17 kts | 359° |
| 2026-04-22 16:05 | -31.31824 | -64.21029 | 1620 ft | 18 kts | 358° |
| 2026-04-22 16:05 | -31.31742 | -64.21075 | 1615 ft | 10 kts | 318° |
| 2026-04-22 16:05 | -31.31700 | -64.21129 | 1621 ft | 5 kts | 305° |
| 2026-04-22 16:06 | -31.31688 | -64.21148 | 1617 ft | 1 kts | 306° |
| 2026-04-22 16:06 | -31.31686 | -64.21151 | 1622 ft | 0 kts | 306° |